• Join FlightAware (Why Join?)
  • Login
  • US Flag 
10:56AM EDT


 

Airport Tracker/Info


-or-


 

Live Flight TrackerFlight Track Log ✈ N2831T ✈ 27-Apr-2013 ✈ KCHO - KHEF

Flight Track Log - Related Links

Times and Time Zones

All times are in EDT time to prevent confusion due to time zone crossing. See the N2831T flight status page for this flight to view local times or setup timezone preferences in your user account.

Time Position Orientation Groundspeed Altitude Reporting Facility
EDT Latitude Longitude Course Direction KTS MPH feet Rate Location/Type
08:54PM 38.1167 -78.4667 45° Northeast 78 90 1,700  Level Potomac TRACON
08:55PM 38.1167 -78.4500 90° East 96 110 9,000 3,600 Climbing Potomac TRACON
08:56PM 38.1500 -78.4167 38° Northeast 92 106 8,600 -300 Descending Potomac TRACON
08:57PM 38.1667 -78.4000 38° Northeast 93 107 8,500 -60 Descending Potomac TRACON
08:58PM 38.1667 -78.3833 90° East 94 108 8,500 120 Level Potomac TRACON
08:59PM 38.2150 -78.3564 45° Northeast  Level FlightAware Approximate
08:59PM 38.1833 -78.3500 58° Northeast 93 107 8,800  Level Potomac TRACON
09:01PM 38.2167 -78.3000 50° Northeast 125 144 5,000 -1,200 Descending Potomac TRACON
09:02PM 38.2500 -78.2500 50° Northeast 129 148 5,100  Climbing Potomac TRACON
09:03PM 38.2667 -78.2167 58° Northeast 129 148 5,000 -60 Descending Potomac TRACON
09:04PM 38.2833 -78.1833 57° Northeast 133 153 5,000  Level Potomac TRACON
09:05PM 38.3167 -78.1500 38° Northeast 135 155 5,000  Level Potomac TRACON
09:05PM 38.3333 -78.1167 57° Northeast 136 157 5,000 -60 Level Potomac TRACON
09:07PM 38.3667 -78.0833 38° Northeast 133 153 4,900 -60 Descending Potomac TRACON
09:08PM 38.3833 -78.0500 57° Northeast 133 153 4,900  Level Potomac TRACON
09:09PM 38.4167 -78.0167 38° Northeast 133 153 4,900  Level Potomac TRACON
09:10PM 38.4500 -77.9833 38° Northeast 137 158 4,900 -180 Level Potomac TRACON
09:11PM 38.4667 -77.9500 57° Northeast 139 160 4,600 -480 Descending Potomac TRACON
09:12PM 38.5167 -77.9167 28° Northeast 153 176 4,000 -300 Descending Potomac TRACON
09:13PM 38.5500 -77.8833 38° Northeast 143 165 4,000 -60 Level Potomac TRACON
09:14PM 38.5833 -77.8667 21° North 134 154 3,900 -180 Descending Potomac TRACON
09:15PM 38.6167 -77.8500 21° North 139 160 3,700 -360 Descending Potomac TRACON
09:16PM 38.6500 -77.8167 38° Northeast 144 166 3,200 -360 Descending Potomac TRACON
09:17PM 38.6833 -77.8000 21° North 140 161 3,000 -180 Descending Potomac TRACON
09:18PM 38.7167 -77.7667 38° Northeast 133 153 2,900 -60 Descending Potomac TRACON
09:19PM 38.7500 -77.7500 21° North 129 148 2,900  Level Potomac TRACON
09:20PM 38.7667 -77.7167 57° Northeast 123 142 2,900  Level Potomac TRACON
09:21PM 38.7833 -77.6833 57° Northeast 121 139 2,900 -420 Level Potomac TRACON
09:22PM 38.7833 -77.6333 90° East 128 147 2,100 -900 Descending Potomac TRACON
09:23PM 38.7833 -77.6000 90° East 100 115 1,300 -600 Descending Potomac TRACON
09:24PM 38.7833 -77.5667 90° East 77 89 1,100 -180 Descending Potomac TRACON
09:25PM 38.7667 -77.5500 142° Southeast 78 90 1,000 -240 Descending Potomac TRACON
09:26PM 38.7500 -77.5333 142° Southeast 79 91 700 -300 Descending Potomac TRACON
09:28PM 38.7210 -77.5151 78° East  Level Estimated
09:35PM 38.7210 -77.5151 78° East  Level Estimated
09:36PM 38.7210 -77.5151 78° East  Level Estimated
09:37PM 38.7210 -77.5151 78° East  Level Estimated
09:38PM 38.7210 -77.5151 78° East  Level Estimated
09:39PM 38.7210 -77.5151 78° East  Level Estimated
09:40PM 38.7210 -77.5151 78° East  Level Estimated
09:41PM 38.7210 -77.5151 78° East  Level Estimated